Time;durP1;ratioP1;P1;durP2;ratioP2;P2;SDS_P1;SDS_P2;PMS_P1;PMS_P2;Temp;Humidity;BMP_temperature;BMP_pressure;BME280_temperature;BME280_humidity;BME280_pressure;Samples;Min_cycle;Max_cycle;Signal;HPM_P1;HPM_P2
2024/04/06 00:02:04;;;;;;;3.50;3.20;;;;;;;;;;4991164;28;20049;-79
2024/04/06 00:04:31;;;;;;;3.35;3.15;;;;;;;;;;4989892;28;20050;-79
2024/04/06 00:06:56;;;;;;;4.28;3.85;;;;;;;;;;4973913;28;20035;-78
2024/04/06 00:09:23;;;;;;;4.00;3.63;;;;;;;;;;4993546;28;20046;-80
2024/04/06 00:11:48;;;;;;;5.40;3.67;;;;;;;;;;4994505;28;20482;-80
2024/04/06 00:14:20;;;;;;;3.88;3.58;;;;;;;;;;4994977;28;20038;-80
2024/04/06 00:16:46;;;;;;;5.32;3.45;;;;;;;;;;4995631;28;20034;-80
2024/04/06 00:19:12;;;;;;;4.03;3.72;;;;;;;;;;5012253;28;20061;-81
2024/04/06 00:21:38;;;;;;;3.85;3.55;;;;;;;;;;4993294;28;20052;-80
2024/04/06 00:24:04;;;;;;;5.50;3.50;;;;;;;;;;4991717;28;20041;-80
2024/04/06 00:26:30;;;;;;;3.60;3.30;;;;;;;;;;4998586;28;20460;-80
2024/04/06 00:28:56;;;;;;;4.43;3.35;;;;;;;;;;5002067;28;20042;-80
2024/04/06 00:31:22;;;;;;;3.85;3.30;;;;;;;;;;4999921;28;20082;-79
2024/04/06 00:33:50;;;;;;;3.45;3.13;;;;;;;;;;4997550;28;20065;-80
2024/04/06 00:36:16;;;;;;;3.47;3.17;;;;;;;;;;4998380;28;20065;-79
2024/04/06 00:38:42;;;;;;;3.20;3.00;;;;;;;;;;5000038;28;20688;-80
2024/04/06 00:41:08;;;;;;;2.70;2.50;;;;;;;;;;4992903;28;20030;-79
2024/04/06 00:43:34;;;;;;;3.45;3.05;;;;;;;;;;5010239;28;20046;-79
2024/04/06 00:46:00;;;;;;;3.10;2.65;;;;;;;;;;4993593;28;20400;-78
2024/04/06 00:48:26;;;;;;;3.47;3.28;;;;;;;;;;4992381;28;20137;-79
2024/04/06 00:50:52;;;;;;;2.90;2.70;;;;;;;;;;4998795;28;20078;-80
2024/04/06 00:53:17;;;;;;;2.78;2.63;;;;;;;;;;4995411;28;20441;-80
2024/04/06 00:55:43;;;;;;;3.15;2.95;;;;;;;;;;4995744;28;20030;-80
2024/04/06 00:58:10;;;;;;;3.67;2.92;;;;;;;;;;4993600;28;20066;-80
2024/04/06 01:00:36;;;;;;;5.88;3.40;;;;;;;;;;4994276;28;20018;-80
2024/04/06 01:03:02;;;;;;;3.58;3.28;;;;;;;;;;4992452;28;20034;-80
2024/04/06 01:05:28;;;;;;;3.45;3.15;;;;;;;;;;4995283;28;20511;-80
2024/04/06 01:07:54;;;;;;;3.20;2.90;;;;;;;;;;4993182;28;20042;-80
2024/04/06 01:10:20;;;;;;;4.35;3.38;;;;;;;;;;4994562;28;20114;-79
2024/04/06 01:12:46;;;;;;;3.15;2.90;;;;;;;;;;5011548;28;20125;-80
2024/04/06 01:15:12;;;;;;;8.13;3.10;;;;;;;;;;4997460;28;20181;-81
2024/04/06 01:17:38;;;;;;;3.28;2.95;;;;;;;;;;5020400;28;20031;-81
2024/04/06 01:20:06;;;;;;;3.30;3.10;;;;;;;;;;4991881;28;20037;-81
2024/04/06 01:22:33;;;;;;;4.20;3.53;;;;;;;;;;4973553;28;20407;-82
2024/04/06 01:24:59;;;;;;;4.30;3.90;;;;;;;;;;4997360;28;20042;-81
2024/04/06 01:27:25;;;;;;;4.20;3.47;;;;;;;;;;5015837;28;20038;-80
2024/04/06 01:29:51;;;;;;;3.55;3.33;;;;;;;;;;4999204;28;20102;-80
2024/04/06 01:32:17;;;;;;;6.57;2.95;;;;;;;;;;5001069;28;20038;-81
2024/04/06 01:34:43;;;;;;;5.38;3.17;;;;;;;;;;4984088;28;20069;-80
2024/04/06 01:37:09;;;;;;;3.40;3.15;;;;;;;;;;5000471;28;20039;-81
2024/04/06 01:39:35;;;;;;;2.97;2.78;;;;;;;;;;5017528;28;20156;-80
2024/04/06 01:42:00;;;;;;;4.10;3.35;;;;;;;;;;4992940;28;20027;-80
2024/04/06 01:44:26;;;;;;;3.85;3.55;;;;;;;;;;4987128;28;20042;-81
2024/04/06 01:46:52;;;;;;;3.30;3.00;;;;;;;;;;4996236;28;20311;-81
2024/04/06 01:49:18;;;;;;;3.03;2.28;;;;;;;;;;5000267;28;20038;-80
2024/04/06 01:51:44;;;;;;;2.90;2.70;;;;;;;;;;4975398;28;20415;-80
2024/04/06 01:54:10;;;;;;;3.40;2.83;;;;;;;;;;4990372;28;20054;-80
2024/04/06 01:56:36;;;;;;;2.97;2.78;;;;;;;;;;4995904;28;20034;-80
2024/04/06 01:59:02;;;;;;;3.53;3.22;;;;;;;;;;5001390;28;20529;-80
2024/04/06 02:01:28;;;;;;;3.35;3.15;;;;;;;;;;5001911;28;20038;-80
2024/04/06 02:03:53;;;;;;;2.80;2.60;;;;;;;;;;5001405;28;20081;-80
2024/04/06 02:06:19;;;;;;;3.78;3.53;;;;;;;;;;4997487;28;20133;-78
2024/04/06 02:08:45;;;;;;;4.07;2.75;;;;;;;;;;4994588;28;20050;-81
2024/04/06 02:11:11;;;;;;;3.50;3.08;;;;;;;;;;5000679;28;20046;-81
2024/04/06 02:13:37;;;;;;;3.33;3.03;;;;;;;;;;5003117;28;20549;-80
2024/04/06 02:16:03;;;;;;;5.10;3.30;;;;;;;;;;5001358;28;20037;-80
2024/04/06 02:18:30;;;;;;;4.82;2.80;;;;;;;;;;5000100;28;20030;-81
2024/04/06 02:21:15;;;;;;;2.72;2.58;;;;;;;;;;4986550;28;20042;-81
2024/04/06 02:23:41;;;;;;;4.68;3.53;;;;;;;;;;5002310;28;20129;-80
2024/04/06 02:26:08;;;;;;;2.83;2.63;;;;;;;;;;4979982;28;20030;-81
2024/04/06 02:28:34;;;;;;;3.70;3.20;;;;;;;;;;4986832;28;20407;-81
2024/04/06 02:30:59;;;;;;;4.50;2.67;;;;;;;;;;4991885;28;20029;-77
2024/04/06 02:33:25;;;;;;;2.97;2.78;;;;;;;;;;5006206;28;20046;-79
2024/04/06 02:35:51;;;;;;;3.10;2.80;;;;;;;;;;4989175;28;20031;-79
2024/04/06 02:38:17;;;;;;;3.50;3.30;;;;;;;;;;4971837;28;20401;-79
2024/04/06 02:40:43;;;;;;;4.97;3.15;;;;;;;;;;4991234;28;20053;-79
2024/04/06 02:43:09;;;;;;;3.70;3.40;;;;;;;;;;4996091;28;20050;-78
2024/04/06 02:45:35;;;;;;;4.45;3.17;;;;;;;;;;4994860;28;20030;-80
2024/04/06 02:48:00;;;;;;;2.78;2.63;;;;;;;;;;4989045;28;20037;-79
2024/04/06 02:50:26;;;;;;;4.20;3.90;;;;;;;;;;4994609;28;20121;-80
2024/04/06 02:52:52;;;;;;;7.78;3.17;;;;;;;;;;4993490;28;20089;-80
2024/04/06 02:55:18;;;;;;;7.80;3.03;;;;;;;;;;4996680;28;20077;-80
2024/04/06 02:57:44;;;;;;;8.15;3.28;;;;;;;;;;5013128;28;20442;-81
2024/04/06 03:00:12;;;;;;;6.75;2.47;;;;;;;;;;4997998;28;20038;-81
2024/04/06 03:02:39;;;;;;;4.95;3.83;;;;;;;;;;5000550;28;20034;-79
2024/04/06 03:05:04;;;;;;;4.40;3.47;;;;;;;;;;4991235;28;20049;-79
2024/04/06 03:07:31;;;;;;;9.10;4.10;;;;;;;;;;4991091;28;20037;-80
2024/04/06 03:09:58;;;;;;;4.28;3.97;;;;;;;;;;4991693;28;20048;-79
2024/04/06 03:12:24;;;;;;;4.70;3.95;;;;;;;;;;4989573;28;20185;-80
2024/04/06 03:14:51;;;;;;;5.25;3.65;;;;;;;;;;5007217;28;20046;-81
2024/04/06 03:17:17;;;;;;;4.53;4.20;;;;;;;;;;4996593;28;20057;-81
2024/04/06 03:19:43;;;;;;;6.38;3.75;;;;;;;;;;4998500;28;20026;-82
2024/04/06 03:22:08;;;;;;;4.25;3.85;;;;;;;;;;4993756;28;20038;-81
2024/04/06 03:24:34;;;;;;;6.57;4.15;;;;;;;;;;4976911;28;20081;-82
2024/04/06 03:27:00;;;;;;;3.15;2.95;;;;;;;;;;4997540;28;20030;-79
2024/04/06 03:29:26;;;;;;;4.22;3.92;;;;;;;;;;4997104;28;20510;-82
2024/04/06 03:31:52;;;;;;;4.15;3.65;;;;;;;;;;5014040;28;20058;-81
2024/04/06 03:34:18;;;;;;;4.55;4.05;;;;;;;;;;4993489;28;20094;-81
2024/04/06 03:36:44;;;;;;;5.35;3.70;;;;;;;;;;4997506;28;20160;-81
2024/04/06 03:39:10;;;;;;;7.05;5.03;;;;;;;;;;4976419;28;20108;-80
2024/04/06 03:41:36;;;;;;;10.30;4.57;;;;;;;;;;5007191;28;20113;-79
2024/04/06 03:44:02;;;;;;;4.38;3.97;;;;;;;;;;4989728;28;20046;-80
2024/04/06 03:46:28;;;;;;;5.72;4.75;;;;;;;;;;4990497;28;20034;-81
2024/04/06 03:48:54;;;;;;;4.72;4.40;;;;;;;;;;4996168;28;20053;-80
2024/04/06 03:51:20;;;;;;;4.25;3.95;;;;;;;;;;4992553;28;20030;-80
2024/04/06 03:53:45;;;;;;;5.45;4.30;;;;;;;;;;4975879;28;20133;-81
2024/04/06 03:56:11;;;;;;;5.18;4.70;;;;;;;;;;4994328;28;20045;-81
2024/04/06 03:58:37;;;;;;;5.50;5.00;;;;;;;;;;4995500;28;20022;-82
2024/04/06 04:01:03;;;;;;;6.50;5.93;;;;;;;;;;4997094;28;20423;-81
2024/04/06 04:03:29;;;;;;;5.15;4.47;;;;;;;;;;5008147;28;20549;-81
2024/04/06 04:05:55;;;;;;;7.43;5.90;;;;;;;;;;5011606;28;20034;-82
2024/04/06 04:08:21;;;;;;;5.60;4.45;;;;;;;;;;4997853;28;20045;-81
2024/04/06 04:10:47;;;;;;;5.45;5.00;;;;;;;;;;5013025;28;20220;-81
2024/04/06 04:13:13;;;;;;;5.63;4.53;;;;;;;;;;5000266;28;20054;-81
2024/04/06 04:15:39;;;;;;;11.90;6.32;;;;;;;;;;4998970;28;20108;-81
2024/04/06 04:18:05;;;;;;;5.35;4.88;;;;;;;;;;5000601;28;20576;-81
2024/04/06 04:20:31;;;;;;;7.65;6.60;;;;;;;;;;4994234;28;20030;-81
2024/04/06 04:22:57;;;;;;;6.85;6.25;;;;;;;;;;4975520;28;20042;-79
2024/04/06 04:25:23;;;;;;;8.18;6.60;;;;;;;;;;4990694;28;20039;-79
2024/04/06 04:27:50;;;;;;;9.25;6.78;;;;;;;;;;4991451;28;20030;-80
2024/04/06 04:30:17;;;;;;;6.97;6.10;;;;;;;;;;5006465;28;20108;-81
2024/04/06 04:32:43;;;;;;;12.07;7.63;;;;;;;;;;4990887;28;20037;-79
2024/04/06 04:35:08;;;;;;;7.18;6.30;;;;;;;;;;4994067;28;20038;-79
2024/04/06 04:37:49;;;;;;;7.32;6.55;;;;;;;;;;4997575;28;20026;-81
2024/04/06 04:40:38;;;;;;;9.70;7.50;;;;;;;;;;4989463;28;20057;-80
2024/04/06 04:43:06;;;;;;;6.82;6.15;;;;;;;;;;4997554;28;20046;-80
2024/04/06 04:45:32;;;;;;;8.20;7.50;;;;;;;;;;4996437;28;20035;-81
2024/04/06 04:48:07;;;;;;;11.35;6.63;;;;;;;;;;4980443;28;20121;-81
2024/04/06 04:50:33;;;;;;;7.45;6.68;;;;;;;;;;4963023;28;20503;-81
2024/04/06 04:52:59;;;;;;;12.85;9.30;;;;;;;;;;4959871;28;20038;-81
2024/04/06 04:55:29;;;;;;;11.05;8.60;;;;;;;;;;4979177;28;20108;-79
2024/04/06 04:57:55;;;;;;;7.40;6.10;;;;;;;;;;4993743;28;20096;-80
2024/04/06 05:00:21;;;;;;;10.18;8.07;;;;;;;;;;4974778;28;20090;-81
2024/04/06 05:02:48;;;;;;;13.45;8.52;;;;;;;;;;4984380;28;20046;-77
2024/04/06 05:06:02;;;;;;;7.80;7.00;;;;;;;;;;4969871;28;20030;-77
2024/04/06 05:08:29;;;;;;;8.98;8.07;;;;;;;;;;4972312;28;20515;-80
2024/04/06 05:10:55;;;;;;;10.55;6.82;;;;;;;;;;4990842;28;20038;-82
2024/04/06 05:13:21;;;;;;;9.55;7.15;;;;;;;;;;4948007;28;20065;-78
2024/04/06 05:15:52;;;;;;;12.63;7.72;;;;;;;;;;4989876;28;20502;-80
2024/04/06 05:18:22;;;;;;;12.43;10.00;;;;;;;;;;4959867;28;20096;-78
2024/04/06 05:20:58;;;;;;;10.80;7.82;;;;;;;;;;4991171;28;20129;-79
2024/04/06 05:23:24;;;;;;;11.30;8.45;;;;;;;;;;4990975;28;20054;-80
2024/04/06 05:25:54;;;;;;;9.73;8.52;;;;;;;;;;4990849;28;20122;-79
2024/04/06 05:28:45;;;;;;;12.77;7.50;;;;;;;;;;4988742;28;20546;-79
2024/04/06 05:31:11;;;;;;;16.98;10.70;;;;;;;;;;4978285;28;20126;-79
2024/04/06 05:33:56;;;;;;;15.48;9.55;;;;;;;;;;4953327;28;20050;-79
2024/04/06 05:36:30;;;;;;;8.63;7.55;;;;;;;;;;4968214;28;20038;-80
2024/04/06 05:38:56;;;;;;;9.02;8.07;;;;;;;;;;4977366;28;20045;-80
2024/04/06 05:41:24;;;;;;;11.98;8.77;;;;;;;;;;4939465;28;20543;-78
2024/04/06 05:43:54;;;;;;;14.57;9.07;;;;;;;;;;4970616;28;20043;-78
2024/04/06 05:46:21;;;;;;;7.45;6.78;;;;;;;;;;4955776;28;20038;-79
2024/04/06 05:48:47;;;;;;;9.10;7.05;;;;;;;;;;4992461;28;20027;-81
2024/04/06 05:51:38;;;;;;;17.63;8.10;;;;;;;;;;5001254;28;20034;-79
2024/04/06 05:54:06;;;;;;;15.55;10.15;;;;;;;;;;4996879;28;20081;-80
2024/04/06 05:56:32;;;;;;;9.80;8.50;;;;;;;;;;4985417;28;20192;-78
2024/04/06 05:58:58;;;;;;;16.75;10.32;;;;;;;;;;4969944;28;20093;-78
2024/04/06 06:01:24;;;;;;;15.93;11.50;;;;;;;;;;4972301;28;20155;-76
2024/04/06 06:03:50;;;;;;;16.25;9.68;;;;;;;;;;4987540;28;20046;-78
2024/04/06 06:06:16;;;;;;;15.88;10.60;;;;;;;;;;4957471;28;20506;-77
2024/04/06 06:08:42;;;;;;;15.98;9.63;;;;;;;;;;4961447;28;20030;-78
2024/04/06 06:11:08;;;;;;;9.15;8.13;;;;;;;;;;4956096;28;20054;-76
2024/04/06 06:13:37;;;;;;;12.57;9.50;;;;;;;;;;4965483;28;20065;-76
2024/04/06 06:16:03;;;;;;;16.63;12.18;;;;;;;;;;4981557;28;20495;-76
2024/04/06 06:18:29;;;;;;;14.50;10.82;;;;;;;;;;4988707;28;20360;-76
2024/04/06 06:20:58;;;;;;;12.05;9.88;;;;;;;;;;4991120;28;20117;-77
2024/04/06 06:23:24;;;;;;;12.35;10.27;;;;;;;;;;4965549;28;20150;-77
2024/04/06 06:25:50;;;;;;;10.85;8.98;;;;;;;;;;4969825;28;20039;-76
2024/04/06 06:28:16;;;;;;;11.02;8.35;;;;;;;;;;4970082;28;20088;-77
2024/04/06 06:30:42;;;;;;;16.23;8.93;;;;;;;;;;4989223;28;20042;-78
2024/04/06 06:33:23;;;;;;;13.25;10.40;;;;;;;;;;4980531;28;20043;-77
2024/04/06 06:36:19;;;;;;;12.70;9.30;;;;;;;;;;4960621;28;20530;-77
2024/04/06 06:38:45;;;;;;;11.30;10.20;;;;;;;;;;4987145;28;20514;-78
2024/04/06 06:41:11;;;;;;;13.88;9.63;;;;;;;;;;4962099;28;20487;-77
2024/04/06 06:43:37;;;;;;;7.35;6.65;;;;;;;;;;4987811;28;20104;-77
2024/04/06 06:46:03;;;;;;;9.93;8.93;;;;;;;;;;4987694;28;20191;-76
2024/04/06 06:51:32;;;;;;;17.17;11.05;;;;;;;;;;4989495;28;20049;-77
2024/04/06 06:53:58;;;;;;;14.02;7.80;;;;;;;;;;5002118;28;20157;-77
2024/04/06 06:56:31;;;;;;;9.05;7.25;;;;;;;;;;4988174;28;20042;-78
2024/04/06 06:59:04;;;;;;;10.82;7.78;;;;;;;;;;4988625;28;20034;-77
2024/04/06 07:01:38;;;;;;;9.32;8.10;;;;;;;;;;4980938;28;20085;-78
2024/04/06 07:04:05;;;;;;;8.45;7.65;;;;;;;;;;4959867;28;20145;-75
2024/04/06 07:06:31;;;;;;;10.65;9.07;;;;;;;;;;5000905;28;20034;-80
2024/04/06 07:08:57;;;;;;;20.88;10.18;;;;;;;;;;4985981;28;20149;-80
2024/04/06 07:11:23;;;;;;;9.27;7.65;;;;;;;;;;4970097;28;20051;-79
2024/04/06 07:14:03;;;;;;;13.10;8.52;;;;;;;;;;4987550;28;20042;-78
2024/04/06 07:16:29;;;;;;;10.80;8.82;;;;;;;;;;4986807;28;20037;-79
2024/04/06 07:18:55;;;;;;;11.27;9.38;;;;;;;;;;4986994;28;20036;-82
2024/04/06 07:21:21;;;;;;;8.38;7.55;;;;;;;;;;4989730;28;20031;-76
2024/04/06 07:23:50;;;;;;;14.30;10.85;;;;;;;;;;4975166;28;20510;-75
2024/04/06 07:26:16;;;;;;;11.15;9.52;;;;;;;;;;4953494;28;20073;-77
2024/04/06 07:28:44;;;;;;;18.38;9.18;;;;;;;;;;5002885;28;20042;-79
2024/04/06 07:31:10;;;;;;;9.88;8.85;;;;;;;;;;4969143;28;20045;-79
2024/04/06 07:33:38;;;;;;;11.82;8.85;;;;;;;;;;4960514;28;20142;-79
2024/04/06 07:36:05;;;;;;;10.48;9.48;;;;;;;;;;4965599;28;20030;-79
2024/04/06 07:38:31;;;;;;;10.02;9.02;;;;;;;;;;4955635;28;20042;-78
2024/04/06 07:41:00;;;;;;;10.95;9.75;;;;;;;;;;4988093;28;20403;-78
2024/04/06 07:43:55;;;;;;;12.95;11.20;;;;;;;;;;5000068;28;20041;-79
2024/04/06 07:46:21;;;;;;;12.77;10.73;;;;;;;;;;4973543;28;20081;-79
2024/04/06 07:48:47;;;;;;;13.93;10.02;;;;;;;;;;4957351;28;20054;-79
2024/04/06 07:51:13;;;;;;;17.75;13.27;;;;;;;;;;4988784;28;20133;-78
2024/04/06 07:53:40;;;;;;;9.85;8.15;;;;;;;;;;4989295;28;20499;-78
2024/04/06 07:56:06;;;;;;;10.77;9.68;;;;;;;;;;4990979;28;20049;-78
2024/04/06 07:58:31;;;;;;;13.75;10.85;;;;;;;;;;4990855;28;20113;-79
2024/04/06 08:01:06;;;;;;;12.63;8.43;;;;;;;;;;4991399;28;20041;-79
2024/04/06 08:03:41;;;;;;;10.20;9.07;;;;;;;;;;4956312;28;20047;-78
2024/04/06 08:06:16;;;;;;;;;;;;;;;;;;4988886;28;20034;-78
2024/04/06 08:08:43;;;;;;;9.43;8.63;;;;;;;;;;4989622;28;19913;-80
2024/04/06 08:11:09;;;;;;;9.30;8.40;;;;;;;;;;4989270;28;20056;-79
2024/04/06 08:13:37;;;;;;;11.90;10.68;;;;;;;;;;4953337;28;20091;-79
2024/04/06 08:16:05;;;;;;;10.98;9.52;;;;;;;;;;4968357;28;20550;-78
2024/04/06 08:21:24;;;;;;;14.35;8.68;;;;;;;;;;4989079;28;20515;-78
2024/04/06 08:23:59;;;;;;;10.68;9.55;;;;;;;;;;4986895;28;20527;-78
2024/04/06 08:26:25;;;;;;;16.05;11.95;;;;;;;;;;4955734;28;20027;-79
2024/04/06 08:28:52;;;;;;;10.30;8.57;;;;;;;;;;4987545;28;20034;-78
2024/04/06 08:31:18;;;;;;;13.23;9.23;;;;;;;;;;4987556;28;20471;-78
2024/04/06 08:33:44;;;;;;;10.32;9.27;;;;;;;;;;4981736;28;20042;-78
2024/04/06 08:36:11;;;;;;;8.27;7.50;;;;;;;;;;4987198;28;20151;-78
2024/04/06 08:38:45;;;;;;;16.50;12.60;;;;;;;;;;4986633;28;20101;-78
2024/04/06 08:41:12;;;;;;;10.32;9.20;;;;;;;;;;4987706;28;20133;-78
2024/04/06 08:43:42;;;;;;;15.07;11.13;;;;;;;;;;4938596;28;20047;-78
2024/04/06 08:46:08;;;;;;;12.77;11.43;;;;;;;;;;4969479;28;20612;-78
2024/04/06 08:48:34;;;;;;;12.65;10.32;;;;;;;;;;4991791;28;20043;-79
2024/04/06 08:51:05;;;;;;;10.32;9.40;;;;;;;;;;5005975;28;20728;-80
2024/04/06 08:53:32;;;;;;;12.05;9.55;;;;;;;;;;4952996;28;20061;-79
2024/04/06 08:56:08;;;;;;;11.00;9.80;;;;;;;;;;4993211;28;20484;-78
2024/04/06 08:58:37;;;;;;;13.95;10.02;;;;;;;;;;4975963;28;20046;-78
2024/04/06 09:01:04;;;;;;;11.55;10.45;;;;;;;;;;4960250;28;20034;-79
2024/04/06 09:03:31;;;;;;;10.50;9.40;;;;;;;;;;4958654;28;20039;-79
2024/04/06 09:05:58;;;;;;;11.00;9.82;;;;;;;;;;4958943;28;20125;-78
2024/04/06 09:08:24;;;;;;;12.60;9.90;;;;;;;;;;4990756;28;20039;-78
2024/04/06 09:11:00;;;;;;;14.68;11.57;;;;;;;;;;4959598;28;20034;-78
2024/04/06 09:13:33;;;;;;;;;;;;;;;;;;4975679;28;20504;-78
2024/04/06 09:16:17;;;;;;;14.77;11.15;;;;;;;;;;4986924;28;20271;-79
2024/04/06 09:18:49;;;;;;;9.50;8.60;;;;;;;;;;4966950;28;20447;-78
2024/04/06 09:21:17;;;;;;;12.63;8.65;;;;;;;;;;4986318;28;20053;-80
2024/04/06 09:23:42;;;;;;;19.88;12.23;;;;;;;;;;4991219;28;20034;-80
2024/04/06 09:26:08;;;;;;;12.75;10.63;;;;;;;;;;4985455;28;20041;-80
2024/04/06 09:28:34;;;;;;;14.65;10.05;;;;;;;;;;4968049;28;20116;-80
2024/04/06 09:31:01;;;;;;;13.55;10.95;;;;;;;;;;4989595;28;20192;-80
2024/04/06 09:33:27;;;;;;;14.15;12.70;;;;;;;;;;4983535;28;20156;-80
2024/04/06 09:35:53;;;;;;;9.32;8.43;;;;;;;;;;4995107;28;20435;-79
2024/04/06 09:38:19;;;;;;;9.77;8.70;;;;;;;;;;4984716;28;20038;-79
2024/04/06 09:40:46;;;;;;;10.52;9.52;;;;;;;;;;4978599;28;20026;-79
2024/04/06 09:43:15;;;;;;;18.38;11.00;;;;;;;;;;4993788;28;20070;-80
2024/04/06 09:45:41;;;;;;;13.02;10.18;;;;;;;;;;4984951;28;20030;-80
2024/04/06 09:48:08;;;;;;;12.35;11.07;;;;;;;;;;4979937;28;20078;-79
2024/04/06 09:50:36;;;;;;;9.60;8.27;;;;;;;;;;4960643;28;20060;-80
2024/04/06 09:53:02;;;;;;;10.70;9.65;;;;;;;;;;4985941;28;20097;-77
2024/04/06 09:55:29;;;;;;;15.20;10.10;;;;;;;;;;4942222;28;20037;-80
2024/04/06 09:57:55;;;;;;;15.18;12.55;;;;;;;;;;4982690;28;20044;-80
2024/04/06 10:00:21;;;;;;;11.68;10.30;;;;;;;;;;4966294;28;20100;-75
2024/04/06 10:02:49;;;;;;;13.05;10.73;;;;;;;;;;4986858;28;20128;-75
2024/04/06 10:05:15;;;;;;;14.80;11.88;;;;;;;;;;4981786;28;20121;-74
2024/04/06 10:07:44;;;;;;;18.80;12.18;;;;;;;;;;4980376;28;20176;-75
2024/04/06 10:10:10;;;;;;;12.70;11.48;;;;;;;;;;4980089;28;20055;-75
2024/04/06 10:12:42;;;;;;;12.35;11.10;;;;;;;;;;4986464;28;20065;-75
2024/04/06 10:15:12;;;;;;;11.15;9.55;;;;;;;;;;4986469;28;20046;-74
2024/04/06 10:17:48;;;;;;;16.40;12.27;;;;;;;;;;4981194;28;20034;-74
2024/04/06 10:20:16;;;;;;;13.82;12.38;;;;;;;;;;4986769;28;20046;-74
2024/04/06 10:22:50;;;;;;;13.18;10.18;;;;;;;;;;4986385;28;20030;-74
2024/04/06 10:25:17;;;;;;;16.98;12.48;;;;;;;;;;4980904;28;20100;-74
2024/04/06 10:27:44;;;;;;;11.77;9.70;;;;;;;;;;4988856;28;20022;-75
2024/04/06 10:30:10;;;;;;;16.88;13.05;;;;;;;;;;4981433;28;20065;-74
2024/04/06 10:32:36;;;;;;;15.45;11.23;;;;;;;;;;4983440;28;20022;-73
2024/04/06 10:35:03;;;;;;;12.18;10.95;;;;;;;;;;4986844;28;20046;-74
2024/04/06 10:37:30;;;;;;;19.08;12.38;;;;;;;;;;4979434;28;20634;-75
2024/04/06 10:39:56;;;;;;;8.98;8.18;;;;;;;;;;4984541;28;20050;-74
2024/04/06 10:42:25;;;;;;;15.60;11.60;;;;;;;;;;4999265;28;20249;-73
2024/04/06 10:44:51;;;;;;;11.77;10.07;;;;;;;;;;4975990;28;20562;-75
2024/04/06 10:47:18;;;;;;;14.38;11.80;;;;;;;;;;4982304;28;20042;-75
2024/04/06 10:49:46;;;;;;;15.05;10.20;;;;;;;;;;4980698;28;20125;-74
2024/04/06 10:52:12;;;;;;;14.10;12.30;;;;;;;;;;4978660;28;20082;-74
2024/04/06 10:54:38;;;;;;;14.13;10.38;;;;;;;;;;4982551;28;20062;-74
2024/04/06 10:57:04;;;;;;;12.60;10.75;;;;;;;;;;4983975;28;20500;-73
2024/04/06 10:59:30;;;;;;;15.65;12.65;;;;;;;;;;4977466;28;20109;-74
2024/04/06 11:01:56;;;;;;;12.25;10.95;;;;;;;;;;4962514;28;20113;-74
2024/04/06 11:04:23;;;;;;;11.27;10.00;;;;;;;;;;4976414;28;20073;-72
2024/04/06 11:06:49;;;;;;;15.45;11.00;;;;;;;;;;4983331;28;20026;-74
2024/04/06 11:09:15;;;;;;;13.00;10.75;;;;;;;;;;4986486;28;20061;-74
2024/04/06 11:11:41;;;;;;;19.58;12.75;;;;;;;;;;4982419;28;20045;-73
2024/04/06 11:14:07;;;;;;;15.35;11.60;;;;;;;;;;4978068;28;20038;-74
2024/04/06 11:16:33;;;;;;;11.98;10.73;;;;;;;;;;4977773;28;20045;-73
2024/04/06 11:18:59;;;;;;;13.68;12.38;;;;;;;;;;4979733;28;20030;-74
2024/04/06 11:21:24;;;;;;;11.20;10.10;;;;;;;;;;4969976;28;20042;-74
2024/04/06 11:23:50;;;;;;;13.20;11.40;;;;;;;;;;4977634;28;20035;-74
2024/04/06 11:26:20;;;;;;;14.93;10.90;;;;;;;;;;4983625;28;20038;-74
2024/04/06 11:28:46;;;;;;;20.98;12.85;;;;;;;;;;4979792;28;20089;-74
2024/04/06 11:31:12;;;;;;;13.23;11.20;;;;;;;;;;4975584;28;20523;-74
2024/04/06 11:33:38;;;;;;;12.57;10.20;;;;;;;;;;4976400;28;20053;-75
2024/04/06 11:36:23;;;;;;;11.60;9.32;;;;;;;;;;4978420;28;20045;-74
2024/04/06 11:38:49;;;;;;;13.82;12.25;;;;;;;;;;4997170;28;20403;-74
2024/04/06 11:41:14;;;;;;;14.32;12.82;;;;;;;;;;4976736;28;20038;-73
2024/04/06 11:43:40;;;;;;;11.90;10.68;;;;;;;;;;4969332;28;20053;-74
2024/04/06 11:46:06;;;;;;;14.23;9.05;;;;;;;;;;4974360;28;20027;-74
2024/04/06 11:48:36;;;;;;;11.02;9.85;;;;;;;;;;4965108;28;20482;-74
2024/04/06 11:51:02;;;;;;;13.82;10.20;;;;;;;;;;4969595;28;20063;-72
2024/04/06 11:53:35;;;;;;;11.10;8.93;;;;;;;;;;4983637;28;20557;-74
2024/04/06 11:56:23;;;;;;;15.32;13.13;;;;;;;;;;4980017;28;20091;-74
2024/04/06 11:59:17;;;;;;;12.90;8.30;;;;;;;;;;4984285;28;20046;-75
2024/04/06 12:01:43;;;;;;;16.08;10.88;;;;;;;;;;4966853;28;20027;-73
2024/04/06 12:04:10;;;;;;;22.58;11.50;;;;;;;;;;4986280;28;20089;-74
2024/04/06 12:06:35;;;;;;;14.93;11.88;;;;;;;;;;4978325;28;20384;-74
2024/04/06 12:09:02;;;;;;;11.73;10.50;;;;;;;;;;4985656;28;20092;-74
2024/04/06 12:11:30;;;;;;;11.27;8.65;;;;;;;;;;4982270;28;20046;-74
2024/04/06 12:13:56;;;;;;;11.88;10.70;;;;;;;;;;4966904;28;20048;-74
2024/04/06 12:16:22;;;;;;;11.23;7.55;;;;;;;;;;4978521;28;20101;-72
2024/04/06 12:18:48;;;;;;;14.15;8.18;;;;;;;;;;4979646;28;20027;-74
2024/04/06 12:21:14;;;;;;;11.10;6.75;;;;;;;;;;4984489;28;20415;-74
2024/04/06 12:23:39;;;;;;;8.40;7.60;;;;;;;;;;4977304;28;20034;-73
2024/04/06 12:26:05;;;;;;;11.13;9.93;;;;;;;;;;4986121;28;20042;-74
2024/04/06 12:28:31;;;;;;;13.05;10.25;;;;;;;;;;4973836;28;20077;-74
2024/04/06 12:30:57;;;;;;;9.05;8.18;;;;;;;;;;4987623;28;20137;-74
2024/04/06 12:33:23;;;;;;;10.57;9.45;;;;;;;;;;4987187;28;20081;-73
2024/04/06 12:35:51;;;;;;;10.70;9.60;;;;;;;;;;4983005;28;20041;-74
2024/04/06 12:38:17;;;;;;;12.52;9.45;;;;;;;;;;4985085;28;20088;-74
2024/04/06 12:41:01;;;;;;;12.27;10.05;;;;;;;;;;4998151;28;20042;-75
2024/04/06 12:43:30;;;;;;;15.75;9.60;;;;;;;;;;4987080;28;20046;-75
2024/04/06 12:45:57;;;;;;;15.75;11.88;;;;;;;;;;4978109;28;20054;-74
2024/04/06 12:48:23;;;;;;;19.27;13.85;;;;;;;;;;4987102;28;20402;-73
2024/04/06 12:50:51;;;;;;;17.70;11.48;;;;;;;;;;4987207;28;20042;-74
2024/04/06 12:53:18;;;;;;;8.98;7.63;;;;;;;;;;4979663;28;20138;-75
2024/04/06 12:55:44;;;;;;;20.52;9.95;;;;;;;;;;4988412;28;20034;-74
2024/04/06 12:58:10;;;;;;;10.38;9.00;;;;;;;;;;4982049;28;20042;-74
2024/04/06 13:00:36;;;;;;;8.10;7.40;;;;;;;;;;4973211;28;20488;-75
2024/04/06 13:03:01;;;;;;;14.88;11.45;;;;;;;;;;4981591;28;20061;-75
2024/04/06 13:05:27;;;;;;;15.20;12.52;;;;;;;;;;4984713;28;20064;-74
2024/04/06 13:07:53;;;;;;;17.10;13.05;;;;;;;;;;4986551;28;20032;-74
2024/04/06 13:10:20;;;;;;;14.02;9.23;;;;;;;;;;4981869;28;20106;-74
2024/04/06 13:13:04;;;;;;;12.27;11.02;;;;;;;;;;4981908;28;20173;-74
2024/04/06 13:15:30;;;;;;;18.15;11.15;;;;;;;;;;4987264;28;20042;-74
2024/04/06 13:17:56;;;;;;;15.45;13.15;;;;;;;;;;4984075;28;20026;-75
2024/04/06 13:20:25;;;;;;;17.48;13.32;;;;;;;;;;4984323;28;20046;-75
2024/04/06 13:22:51;;;;;;;17.92;11.93;;;;;;;;;;4985226;28;20041;-75
2024/04/06 13:25:19;;;;;;;17.05;12.05;;;;;;;;;;4987799;28;20039;-74
2024/04/06 13:27:45;;;;;;;17.55;9.27;;;;;;;;;;4982934;28;20022;-74
2024/04/06 13:30:11;;;;;;;13.68;10.43;;;;;;;;;;4981629;28;20066;-74
2024/04/06 13:32:37;;;;;;;16.27;12.30;;;;;;;;;;4985552;28;20066;-73
2024/04/06 13:35:06;;;;;;;7.53;5.03;;;;;;;;;;4986174;28;20802;-74
2024/04/06 13:37:33;;;;;;;16.63;11.25;;;;;;;;;;4981854;28;20098;-75
2024/04/06 13:40:10;;;;;;;10.45;9.10;;;;;;;;;;4981884;28;20099;-75
2024/04/06 13:42:37;;;;;;;13.23;10.48;;;;;;;;;;4987732;28;20030;-75
2024/04/06 13:45:11;;;;;;;23.17;11.73;;;;;;;;;;4980498;28;20052;-74
2024/04/06 13:47:40;;;;;;;14.45;10.80;;;;;;;;;;4990246;28;20628;-75
2024/04/06 13:50:09;;;;;;;15.63;11.20;;;;;;;;;;4972751;28;20045;-75
2024/04/06 13:52:36;;;;;;;16.65;11.70;;;;;;;;;;4971235;28;20179;-75
2024/04/06 13:55:04;;;;;;;12.13;9.98;;;;;;;;;;4973212;28;20038;-76
2024/04/06 13:57:31;;;;;;;7.70;7.10;;;;;;;;;;4978523;28;20026;-76
2024/04/06 13:59:57;;;;;;;12.27;8.88;;;;;;;;;;4990616;28;20127;-76
2024/04/06 14:02:23;;;;;;;11.35;9.00;;;;;;;;;;4988029;28;20065;-74
2024/04/06 14:04:48;;;;;;;15.50;11.63;;;;;;;;;;4986437;28;20049;-75
2024/04/06 14:07:14;;;;;;;12.93;8.55;;;;;;;;;;4968269;28;20045;-76
2024/04/06 14:09:40;;;;;;;19.58;10.88;;;;;;;;;;4977835;28;20034;-75
2024/04/06 14:12:07;;;;;;;14.70;11.80;;;;;;;;;;4996510;28;20058;-76
2024/04/06 14:14:34;;;;;;;16.83;10.07;;;;;;;;;;4984316;28;20043;-76
2024/04/06 14:17:00;;;;;;;10.38;9.07;;;;;;;;;;4985199;28;20098;-80
2024/04/06 14:19:27;;;;;;;14.27;12.77;;;;;;;;;;4989298;28;20034;-79
2024/04/06 14:21:53;;;;;;;12.57;10.98;;;;;;;;;;5002585;28;20031;-80
2024/04/06 14:24:20;;;;;;;15.07;12.05;;;;;;;;;;4969990;28;20113;-79
2024/04/06 14:26:49;;;;;;;19.08;9.55;;;;;;;;;;4982496;28;20121;-78
2024/04/06 14:29:15;;;;;;;12.52;10.82;;;;;;;;;;4977429;28;20419;-78
2024/04/06 14:31:40;;;;;;;10.20;8.35;;;;;;;;;;4979509;28;20028;-78
2024/04/06 14:34:07;;;;;;;9.60;7.95;;;;;;;;;;4982555;28;20050;-78
2024/04/06 14:36:32;;;;;;;20.02;10.80;;;;;;;;;;4981937;28;20038;-77
2024/04/06 14:38:58;;;;;;;17.08;10.57;;;;;;;;;;4983182;28;20038;-78
2024/04/06 14:41:24;;;;;;;17.67;11.93;;;;;;;;;;4979932;28;20019;-78